createdAt,value
2022-08-04T00:01:54.154Z,55.09
2022-08-04T00:04:38.013Z,55.08
2022-08-04T00:07:16.568Z,55.22
2022-08-04T00:10:00.030Z,55.54
2022-08-04T00:12:39.218Z,55.49
2022-08-04T00:15:15.086Z,55.43
2022-08-04T00:17:54.340Z,55.48
2022-08-04T00:20:29.480Z,55.38
2022-08-04T00:23:00.759Z,55.49
2022-08-04T00:25:30.399Z,55.65
2022-08-04T00:28:02.269Z,55.69
2022-08-04T00:30:34.103Z,55.73
2022-08-04T00:33:03.939Z,56.32
2022-08-04T00:35:33.764Z,56.59
2022-08-04T00:38:04.137Z,56.73
2022-08-04T00:40:53.794Z,56.92
2022-08-04T00:43:35.677Z,56.99
2022-08-04T00:46:41.667Z,57.13
2022-08-04T00:49:53.742Z,57.11
2022-08-04T00:52:46.935Z,57.23
2022-08-04T00:55:33.738Z,57.31
2022-08-04T00:58:19.089Z,57.45
2022-08-04T01:01:01.160Z,57.57
2022-08-04T01:04:09.202Z,57.81
2022-08-04T01:06:44.889Z,57.97
2022-08-04T01:09:48.899Z,58.04
2022-08-04T01:12:37.674Z,58.01
2022-08-04T01:15:23.570Z,57.88
2022-08-04T01:18:27.530Z,57.78
2022-08-04T01:21:30.309Z,57.72
2022-08-04T01:24:59.979Z,57.97
2022-08-04T01:28:02.399Z,58.50
2022-08-04T01:30:33.696Z,58.88
2022-08-04T01:33:13.881Z,59.02
2022-08-04T01:35:56.540Z,59.03
2022-08-04T01:38:42.691Z,59.25
2022-08-04T01:41:19.345Z,59.37
2022-08-04T01:44:03.140Z,59.46
2022-08-04T01:46:36.645Z,59.73
2022-08-04T01:49:07.418Z,59.89
2022-08-04T01:51:40.066Z,60.02
2022-08-04T01:54:10.700Z,60.30
2022-08-04T01:57:02.059Z,60.57
2022-08-04T02:00:08.868Z,60.95
2022-08-04T02:02:41.807Z,61.09
2022-08-04T02:05:20.206Z,61.30
2022-08-04T02:08:46.230Z,61.25
2022-08-04T02:11:26.252Z,61.37
2022-08-04T02:14:47.227Z,61.46
2022-08-04T02:17:51.833Z,61.56
2022-08-04T02:21:21.071Z,61.45
2022-08-04T02:24:34.509Z,61.75
2022-08-04T02:28:00.603Z,61.92
2022-08-04T02:31:30.434Z,62.05
2022-08-04T02:34:32.751Z,62.16
2022-08-04T02:37:34.458Z,61.98
2022-08-04T02:40:30.005Z,61.92
2022-08-04T02:43:11.172Z,62.07
2022-08-04T02:46:05.500Z,62.34
2022-08-04T02:48:57.919Z,62.43
2022-08-04T02:51:39.754Z,62.39
2022-08-04T02:54:31.562Z,62.34
2022-08-04T02:58:07.742Z,62.32
2022-08-04T03:01:07.904Z,62.55
2022-08-04T03:04:47.928Z,62.60
2022-08-04T03:08:43.068Z,62.74
2022-08-04T03:12:04.533Z,62.66
2022-08-04T03:15:45.084Z,62.93
2022-08-04T03:18:35.370Z,63.04
2022-08-04T03:21:47.263Z,62.91
2022-08-04T03:24:43.638Z,62.86
2022-08-04T03:27:28.752Z,62.83
2022-08-04T03:30:56.275Z,63.03
2022-08-04T03:33:37.875Z,63.04
2022-08-04T03:36:35.151Z,63.05
2022-08-04T03:39:48.645Z,63.00
2022-08-04T03:42:39.787Z,63.18
2022-08-04T03:45:38.988Z,63.13
2022-08-04T03:48:43.755Z,63.16
2022-08-04T03:51:52.992Z,63.23
2022-08-04T03:54:53.026Z,63.36
2022-08-04T03:58:09.584Z,63.37
2022-08-04T04:01:07.584Z,63.76
2022-08-04T04:04:29.484Z,63.99
2022-08-04T04:07:44.984Z,63.96
2022-08-04T04:10:52.586Z,63.86
2022-08-04T04:14:02.197Z,63.85
2022-08-04T04:17:09.294Z,64.09
2022-08-04T04:19:46.930Z,64.02
2022-08-04T04:22:52.680Z,63.91
2022-08-04T04:25:46.341Z,63.71
2022-08-04T04:28:44.736Z,63.70
2022-08-04T04:31:36.271Z,63.74
2022-08-04T04:34:46.234Z,63.60
2022-08-04T04:37:47.715Z,63.52
2022-08-04T04:40:57.862Z,63.44
2022-08-04T04:44:06.843Z,63.37
2022-08-04T04:47:17.641Z,63.30
2022-08-04T04:50:21.191Z,63.08
2022-08-04T04:53:36.259Z,62.89
2022-08-04T04:56:35.745Z,62.86
2022-08-04T04:59:15.701Z,62.67
2022-08-04T05:01:52.085Z,62.50
2022-08-04T05:04:58.521Z,62.13
2022-08-04T05:08:43.945Z,62.01
2022-08-04T05:11:49.545Z,61.85
2022-08-04T05:14:41.219Z,61.65
2022-08-04T05:17:32.006Z,61.22
2022-08-04T05:20:06.486Z,61.10
2022-08-04T05:22:57.065Z,60.68
2022-08-04T05:25:37.764Z,60.28
2022-08-04T05:28:18.674Z,59.90
2022-08-04T05:31:12.220Z,59.53
2022-08-04T05:33:54.714Z,58.95
2022-08-04T05:36:41.791Z,58.26
2022-08-04T05:39:19.486Z,57.67
2022-08-04T05:41:54.981Z,57.08
2022-08-04T05:44:28.275Z,56.45
2022-08-04T05:47:00.413Z,55.61
2022-08-04T05:49:30.534Z,54.92
2022-08-04T05:52:06.761Z,54.47
2022-08-04T05:54:38.097Z,54.04
2022-08-04T05:57:09.183Z,53.17
2022-08-04T05:59:42.543Z,52.49
2022-08-04T06:02:18.074Z,52.41
2022-08-04T06:04:52.807Z,51.85
2022-08-04T06:07:22.319Z,50.62
2022-08-04T06:09:51.575Z,49.67
2022-08-04T06:12:37.873Z,49.14
2022-08-04T06:15:11.406Z,48.20
2022-08-04T06:19:56.791Z,47.48
2022-08-04T06:20:50.024Z,46.89
2022-08-04T06:23:22.105Z,46.35
2022-08-04T06:25:57.361Z,45.15
2022-08-04T06:28:29.333Z,44.66
2022-08-04T06:32:26.837Z,44.54
2022-08-04T06:33:54.316Z,44.36
2022-08-04T06:36:25.483Z,43.20
2022-08-04T06:38:58.824Z,42.81
2022-08-04T06:41:31.066Z,42.58
2022-08-04T06:44:05.443Z,42.11
2022-08-04T06:46:41.528Z,41.66
2022-08-04T06:49:13.681Z,41.46
2022-08-04T06:51:49.506Z,41.36
2022-08-04T06:54:18.971Z,41.17
2022-08-04T06:56:49.962Z,40.38
2022-08-04T06:59:24.029Z,39.83
2022-08-04T07:01:54.552Z,39.41
2022-08-04T07:04:24.359Z,38.89
2022-08-04T07:06:56.078Z,38.11
2022-08-04T07:09:25.502Z,37.20
2022-08-04T07:11:55.730Z,36.11
2022-08-04T07:14:27.355Z,36.01
2022-08-04T07:16:57.368Z,35.95
2022-08-04T07:19:26.555Z,35.82
2022-08-04T07:22:16.824Z,35.18
2022-08-04T07:24:46.628Z,35.39
2022-08-04T07:27:17.636Z,35.40
2022-08-04T07:30:07.708Z,34.86
2022-08-04T07:32:41.717Z,34.45
2022-08-04T07:36:04.039Z,34.07
2022-08-04T07:38:04.217Z,33.54
2022-08-04T07:40:40.596Z,33.31
2022-08-04T07:43:10.431Z,33.19
2022-08-04T07:45:39.645Z,32.96
2022-08-04T07:48:12.657Z,32.66
2022-08-04T07:50:45.007Z,32.46
2022-08-04T07:53:53.069Z,31.93
2022-08-04T07:56:04.373Z,31.35
2022-08-04T07:58:33.334Z,31.55
2022-08-04T08:01:02.543Z,31.65
2022-08-04T08:03:32.582Z,31.67
2022-08-04T08:06:30.600Z,31.52
2022-08-04T08:08:52.002Z,31.50
2022-08-04T08:11:21.581Z,31.67
2022-08-04T08:13:51.212Z,31.92
2022-08-04T08:16:21.318Z,31.57
2022-08-04T08:18:56.405Z,31.68
2022-08-04T08:21:25.662Z,31.46
2022-08-04T08:23:56.178Z,31.28
2022-08-04T08:26:25.645Z,30.66
2022-08-04T08:28:54.823Z,30.39
2022-08-04T08:31:57.506Z,30.61
2022-08-04T08:34:14.462Z,30.19
2022-08-04T08:37:14.131Z,30.15
2022-08-04T08:40:01.743Z,29.90
2022-08-04T08:42:59.234Z,29.53
2022-08-04T08:46:49.545Z,29.33
2022-08-04T08:50:03.061Z,29.47
2022-08-04T08:53:29.183Z,29.15
2022-08-04T08:56:10.025Z,29.03
2022-08-04T08:59:24.395Z,28.85
2022-08-04T09:02:40.923Z,29.16
2022-08-04T09:05:55.511Z,28.70
2022-08-04T09:09:04.673Z,27.93
2022-08-04T09:12:30.492Z,27.93
2022-08-04T09:15:38.003Z,28.28
2022-08-04T09:18:21.275Z,27.97
2022-08-04T09:21:37.714Z,27.28
2022-08-04T09:24:35.816Z,26.83
2022-08-04T09:27:18.546Z,27.21
2022-08-04T09:30:13.847Z,27.57
2022-08-04T09:33:16.505Z,27.17
2022-08-04T09:36:03.126Z,26.58
2022-08-04T09:39:09.802Z,26.29
2022-08-04T09:42:23.170Z,27.05
2022-08-04T09:45:43.266Z,26.73
2022-08-04T09:48:55.800Z,26.62
2022-08-04T09:51:56.952Z,25.75
2022-08-04T09:54:58.857Z,25.55
2022-08-04T09:58:12.992Z,26.17
2022-08-04T10:00:50.145Z,25.69
2022-08-04T10:03:25.079Z,25.54
2022-08-04T10:06:31.947Z,25.34
2022-08-04T10:09:45.117Z,25.60
2022-08-04T10:12:25.264Z,25.99
2022-08-04T10:15:11.698Z,25.91
2022-08-04T10:18:17.447Z,25.61
2022-08-04T10:21:10.266Z,25.91
2022-08-04T10:24:13.338Z,26.04
2022-08-04T10:27:23.011Z,25.81
2022-08-04T10:29:58.770Z,25.90
2022-08-04T10:32:43.117Z,25.94
2022-08-04T10:35:23.799Z,25.63
2022-08-04T10:41:50.827Z,25.76
2022-08-04T10:45:01.325Z,26.05
2022-08-04T10:47:35.691Z,26.18
2022-08-04T10:50:09.437Z,26.05
2022-08-04T10:53:09.936Z,26.35
2022-08-04T10:56:07.379Z,26.55
2022-08-04T10:58:48.561Z,26.82
2022-08-04T11:01:59.846Z,26.69
2022-08-04T11:04:47.638Z,26.91
2022-08-04T11:07:17.943Z,27.38
2022-08-04T11:09:52.762Z,27.63
2022-08-04T11:12:32.708Z,27.81
2022-08-04T11:15:23.857Z,28.16
2022-08-04T11:18:16.812Z,28.14
2022-08-04T11:21:03.553Z,28.47
2022-08-04T11:23:37.957Z,28.98
2022-08-04T11:26:18.451Z,28.93
2022-08-04T11:29:04.072Z,29.02
2022-08-04T11:31:40.184Z,29.06
2022-08-04T11:34:31.270Z,29.44
2022-08-04T11:37:19.333Z,29.57
2022-08-04T11:40:16.834Z,29.29
2022-08-04T11:43:08.983Z,29.55
2022-08-04T11:46:02.228Z,29.66
2022-08-04T11:49:14.517Z,30.08
2022-08-04T11:52:37.548Z,29.84
2022-08-04T11:56:09.410Z,29.97
2022-08-04T11:58:30.961Z,29.91
2022-08-04T12:01:29.464Z,30.05
2022-08-04T12:04:35.431Z,29.80
2022-08-04T12:07:30.677Z,30.23
2022-08-04T12:10:41.220Z,30.23
2022-08-04T12:14:15.529Z,30.31
2022-08-04T12:17:02.132Z,30.75
2022-08-04T12:20:03.932Z,30.59
2022-08-04T12:22:44.253Z,30.46
2022-08-04T12:25:44.879Z,30.08
2022-08-04T12:28:28.244Z,29.64
2022-08-04T12:31:28.295Z,30.11
2022-08-04T12:34:35.589Z,30.33
2022-08-04T12:37:49.755Z,30.15
2022-08-04T12:40:31.671Z,29.81
2022-08-04T12:43:12.060Z,29.93
2022-08-04T12:45:51.084Z,29.84
2022-08-04T12:48:22.913Z,30.11
2022-08-04T12:50:57.563Z,30.80
2022-08-04T12:53:50.569Z,31.23
2022-08-04T12:56:27.985Z,30.47
2022-08-04T12:59:12.802Z,30.32
2022-08-04T13:02:08.098Z,30.92
2022-08-04T13:04:51.314Z,30.53
2022-08-04T13:07:24.977Z,30.29
2022-08-04T13:09:54.269Z,30.15
2022-08-04T13:12:31.967Z,29.63
2022-08-04T13:15:22.214Z,29.31
2022-08-04T13:18:15.153Z,29.47
2022-08-04T13:20:46.063Z,29.61
2022-08-04T13:23:21.941Z,29.49
2022-08-04T13:26:42.489Z,29.14
2022-08-04T13:28:47.319Z,29.08
2022-08-04T13:31:21.095Z,29.09
2022-08-04T13:33:54.325Z,29.24
2022-08-04T13:36:29.053Z,29.10
2022-08-04T13:39:08.543Z,28.89
2022-08-04T13:41:43.890Z,28.88
2022-08-04T13:44:20.418Z,28.92
2022-08-04T13:47:01.597Z,28.76
2022-08-04T13:49:54.179Z,28.80
2022-08-04T13:52:26.981Z,28.89
2022-08-04T13:54:55.997Z,28.73
2022-08-04T13:57:45.196Z,28.77
2022-08-04T14:00:19.475Z,28.76
2022-08-04T14:03:23.863Z,28.77
2022-08-04T14:06:26.909Z,28.81
2022-08-04T14:09:00.836Z,28.87
2022-08-04T14:12:10.859Z,28.86
2022-08-04T14:14:34.183Z,28.62
2022-08-04T14:17:20.232Z,28.32
2022-08-04T14:20:00.120Z,28.11
2022-08-04T14:22:31.891Z,28.16
2022-08-04T14:25:18.084Z,28.47
2022-08-04T14:27:57.094Z,28.73
2022-08-04T14:30:37.837Z,28.98
2022-08-04T14:34:01.616Z,28.45
2022-08-04T14:36:04.358Z,28.17
2022-08-04T14:38:47.101Z,27.93
2022-08-04T14:41:19.810Z,28.12
2022-08-04T14:43:53.333Z,28.26
2022-08-04T14:46:30.353Z,28.38
2022-08-04T14:49:12.923Z,28.20
2022-08-04T14:51:45.107Z,28.16
2022-08-04T14:54:18.816Z,28.31
2022-08-04T14:57:02.093Z,28.32
2022-08-04T14:59:59.430Z,28.46
2022-08-04T15:02:36.243Z,28.60
2022-08-04T15:06:00.050Z,28.51
2022-08-04T15:07:58.486Z,28.48
2022-08-04T15:10:28.981Z,28.56
2022-08-04T15:12:59.532Z,28.70
2022-08-04T15:15:37.045Z,28.72
2022-08-04T15:18:11.558Z,29.02
2022-08-04T15:20:44.659Z,28.99
2022-08-04T15:23:14.337Z,28.86
2022-08-04T15:25:57.634Z,28.56
2022-08-04T15:28:29.755Z,28.50
2022-08-04T15:31:02.040Z,28.29
2022-08-04T15:33:34.056Z,28.37
2022-08-04T15:36:35.625Z,28.13
2022-08-04T15:39:30.081Z,28.17
2022-08-04T15:42:20.880Z,28.26
2022-08-04T15:45:21.936Z,28.39
2022-08-04T15:48:03.026Z,28.50
2022-08-04T15:50:33.006Z,28.67
2022-08-04T15:53:10.775Z,28.61
2022-08-04T15:55:43.961Z,28.65
2022-08-04T15:58:15.787Z,28.59
2022-08-04T16:00:50.780Z,28.52
2022-08-04T16:03:59.189Z,28.57
2022-08-04T16:06:26.833Z,28.73
2022-08-04T16:09:01.559Z,28.99
2022-08-04T16:11:33.357Z,29.04
2022-08-04T16:14:08.377Z,29.18
2022-08-04T16:16:37.588Z,29.21
2022-08-04T16:19:35.464Z,29.35
2022-08-04T16:22:05.556Z,29.35
2022-08-04T16:24:40.609Z,29.44
2022-08-04T16:27:11.711Z,29.45
2022-08-04T16:29:48.134Z,29.50
2022-08-04T16:32:26.485Z,29.57
2022-08-04T16:35:03.865Z,29.58
2022-08-04T16:37:37.975Z,29.53
2022-08-04T16:40:31.735Z,29.49
2022-08-04T16:43:14.834Z,29.55
2022-08-04T16:45:59.069Z,29.50
2022-08-04T16:48:34.714Z,29.45
2022-08-04T16:51:15.183Z,29.64
2022-08-04T16:53:52.324Z,29.61
2022-08-04T16:56:34.383Z,29.74
2022-08-04T16:59:12.185Z,29.88
2022-08-04T17:01:51.838Z,29.76
2022-08-04T17:04:35.291Z,29.75
2022-08-04T17:07:06.349Z,29.86
2022-08-04T17:09:35.466Z,29.99
2022-08-04T17:12:04.859Z,30.16
2022-08-04T17:14:33.984Z,30.24
2022-08-04T17:17:04.569Z,30.34
2022-08-04T17:19:38.075Z,30.48
2022-08-04T17:22:11.358Z,30.65
2022-08-04T17:24:41.220Z,30.83
2022-08-04T17:28:09.131Z,30.93
2022-08-04T17:30:00.282Z,31.03
2022-08-04T17:32:35.326Z,31.26
2022-08-04T17:35:10.070Z,31.47
2022-08-04T17:37:52.509Z,31.72
2022-08-04T17:40:25.383Z,32.12
2022-08-04T17:44:01.653Z,32.25
2022-08-04T17:46:28.793Z,32.46
2022-08-04T17:49:02.393Z,32.98
2022-08-04T17:52:05.354Z,33.12
2022-08-04T17:54:40.647Z,33.44
2022-08-04T17:57:21.330Z,33.76
2022-08-04T17:59:59.641Z,34.14
2022-08-04T18:02:34.984Z,34.22
2022-08-04T18:05:11.839Z,34.40
2022-08-04T18:08:39.050Z,34.47
2022-08-04T18:13:44.083Z,34.96
2022-08-04T18:16:21.765Z,35.14
2022-08-04T18:19:13.140Z,35.41
2022-08-04T18:22:00.265Z,35.49
2022-08-04T18:24:35.482Z,35.55
2022-08-04T18:27:26.476Z,35.91
2022-08-04T18:30:33.986Z,36.07
2022-08-04T18:33:24.617Z,36.32
2022-08-04T18:36:35.479Z,36.50
2022-08-04T18:38:58.913Z,36.61
2022-08-04T18:41:30.413Z,36.81
2022-08-04T18:44:27.395Z,37.04
2022-08-04T18:51:01.774Z,37.40
2022-08-04T18:52:45.411Z,37.46
2022-08-04T18:55:56.149Z,37.68
2022-08-04T18:58:11.788Z,37.79
2022-08-04T19:03:33.328Z,38.17
2022-08-04T19:06:03.156Z,38.36
2022-08-04T19:08:42.066Z,38.46
2022-08-04T19:11:35.232Z,38.62
2022-08-04T19:14:05.143Z,38.81
2022-08-04T19:16:47.317Z,39.24
2022-08-04T19:19:20.238Z,39.42
2022-08-04T19:22:00.350Z,39.58
2022-08-04T19:24:34.741Z,39.71
2022-08-04T19:27:16.326Z,39.78
2022-08-04T19:29:46.209Z,40.14
2022-08-04T19:32:16.279Z,40.15
2022-08-04T19:34:49.904Z,40.24
2022-08-04T19:37:58.416Z,40.57
2022-08-04T19:40:33.599Z,40.76
2022-08-04T19:43:15.290Z,40.89
2022-08-04T19:45:45.762Z,41.09
2022-08-04T19:51:04.641Z,41.27
2022-08-04T19:53:37.586Z,41.37
2022-08-04T19:56:07.570Z,41.73
2022-08-04T19:58:38.605Z,41.79
2022-08-04T20:01:14.429Z,41.93
2022-08-04T20:04:08.961Z,42.09
2022-08-04T20:06:39.802Z,42.17
2022-08-04T20:09:26.312Z,42.48
2022-08-04T20:11:57.344Z,42.59
2022-08-04T20:14:32.727Z,42.54
2022-08-04T20:17:10.351Z,42.68
2022-08-04T20:19:40.025Z,42.89
2022-08-04T20:22:51.945Z,43.10
2022-08-04T20:25:27.249Z,43.04
2022-08-04T20:28:00.081Z,43.40
2022-08-04T20:30:31.034Z,43.36
2022-08-04T20:33:04.088Z,43.66
2022-08-04T20:35:46.038Z,43.56
2022-08-04T20:38:33.388Z,43.71
2022-08-04T20:41:03.519Z,43.90
2022-08-04T20:43:32.904Z,44.08
2022-08-04T20:46:18.598Z,44.18
2022-08-04T20:48:52.622Z,44.43
2022-08-04T20:51:31.819Z,44.51
2022-08-04T20:54:04.448Z,44.74
2022-08-04T20:56:51.264Z,44.90
2022-08-04T20:59:22.896Z,45.06
2022-08-04T21:01:53.956Z,45.08
2022-08-04T21:04:31.635Z,45.08
2022-08-04T21:07:10.095Z,45.28
2022-08-04T21:09:50.636Z,45.34
2022-08-04T21:12:28.540Z,45.27
2022-08-04T21:15:13.700Z,45.51
2022-08-04T21:17:57.960Z,45.61
2022-08-04T21:20:39.535Z,45.67
2022-08-04T21:23:12.224Z,45.66
2022-08-04T21:25:51.182Z,45.70
2022-08-04T21:28:21.574Z,45.59
2022-08-04T21:30:55.793Z,45.76
2022-08-04T21:33:50.044Z,45.71
2022-08-04T21:36:27.431Z,45.86
2022-08-04T21:38:57.430Z,45.97
2022-08-04T21:41:27.262Z,45.98
2022-08-04T21:43:59.478Z,46.14
2022-08-04T21:46:31.349Z,46.05
2022-08-04T21:49:02.560Z,46.03
2022-08-04T21:51:58.488Z,46.06
2022-08-04T21:54:28.376Z,46.17
2022-08-04T21:56:57.567Z,46.28
2022-08-04T21:59:34.040Z,46.51
2022-08-04T22:02:15.335Z,46.50
2022-08-04T22:04:57.181Z,46.68
2022-08-04T22:07:50.483Z,46.67
2022-08-04T22:10:22.413Z,46.70
2022-08-04T22:13:06.861Z,46.75
2022-08-04T22:16:05.423Z,46.68
2022-08-04T22:18:28.033Z,46.76
2022-08-04T22:20:59.838Z,46.85
2022-08-04T22:23:31.037Z,46.80
2022-08-04T22:26:26.814Z,46.86
2022-08-04T22:28:58.455Z,46.85
2022-08-04T22:31:29.365Z,46.82
2022-08-04T22:34:18.311Z,47.10
2022-08-04T22:36:48.197Z,47.13
2022-08-04T22:39:17.180Z,47.12
2022-08-04T22:42:04.375Z,47.40
2022-08-04T22:44:34.135Z,47.68
2022-08-04T22:47:06.048Z,47.80
2022-08-04T22:49:37.874Z,47.87
2022-08-04T22:52:12.637Z,48.01
2022-08-04T22:54:50.888Z,48.37
2022-08-04T22:57:20.844Z,48.44
2022-08-04T23:00:11.978Z,48.56
2022-08-04T23:02:42.965Z,48.68
2022-08-04T23:05:15.757Z,48.64
2022-08-04T23:07:49.190Z,48.72
2022-08-04T23:10:18.878Z,48.77
2022-08-04T23:12:53.632Z,48.83
2022-08-04T23:15:22.569Z,48.87
2022-08-04T23:17:51.836Z,49.07
2022-08-04T23:20:23.410Z,49.08
2022-08-04T23:23:12.327Z,49.33
2022-08-04T23:26:07.080Z,49.53
2022-08-04T23:28:34.859Z,49.65
2022-08-04T23:31:05.527Z,49.70
2022-08-04T23:33:50.946Z,49.88
2022-08-04T23:36:30.073Z,49.85
2022-08-04T23:39:04.061Z,50.00
2022-08-04T23:41:54.669Z,50.14
2022-08-04T23:44:26.750Z,50.23
2022-08-04T23:47:04.633Z,50.31
2022-08-04T23:49:44.874Z,50.30
2022-08-04T23:52:27.923Z,50.34
2022-08-04T23:54:59.616Z,50.39
2022-08-04T23:57:31.406Z,50.49
